Time;durP1;ratioP1;P1;durP2;ratioP2;P2;SDS_P1;SDS_P2;PMS_P1;PMS_P2;Temp;Humidity;BMP_temperature;BMP_pressure;BME280_temperature;BME280_humidity;BME280_pressure;Samples;Min_cycle;Max_cycle;Signal;HPM_P1;HPM_P2
2022/05/21 00:01:06;;;;;;;3.60;2.93;;;;;;;23.03;nan;94947.69;4746556;30;20439;-75
2022/05/21 00:03:32;;;;;;;6.37;3.50;;;;;;;22.78;nan;94954.56;4748261;30;20285;-75
2022/05/21 00:05:57;;;;;;;6.07;2.60;;;;;;;22.89;nan;94954.56;4747379;30;20672;-75
2022/05/21 00:08:23;;;;;;;3.57;3.27;;;;;;;22.81;nan;94955.88;4733893;30;20231;-75
2022/05/21 00:10:49;;;;;;;3.30;3.00;;;;;;;22.66;nan;94945.97;4753052;30;20214;-75
2022/05/21 00:13:14;;;;;;;3.10;2.70;;;;;;;22.74;nan;94950.00;4766521;30;20199;-75
2022/05/21 00:15:41;;;;;;;8.63;5.60;;;;;;;22.68;nan;94945.72;4756768;30;20675;-75
2022/05/21 00:18:06;;;;;;;3.87;3.00;;;;;;;22.48;nan;94949.09;4767055;30;20202;-75
2022/05/21 00:20:47;;;;;;;2.50;2.30;;;;;;;22.45;nan;94949.66;4755370;30;20450;-75
2022/05/21 00:23:25;;;;;;;2.97;2.77;;;;;;;22.25;nan;94947.66;4755544;30;20433;-75
2022/05/21 00:26:09;;;;;;;4.37;3.17;;;;;;;22.36;nan;94944.78;4766826;30;21000;-76
2022/05/21 00:28:36;;;;;;;3.80;2.43;;;;;;;22.30;nan;94945.84;4762036;30;20446;-75
2022/05/21 00:31:03;;;;;;;4.17;2.77;;;;;;;21.65;nan;94945.22;4759329;30;20445;-75
2022/05/21 00:33:29;;;;;;;3.73;3.00;;;;;;;21.94;nan;94936.84;4757581;30;20430;-74
2022/05/21 00:35:55;;;;;;;4.87;2.00;;;;;;;21.02;nan;94927.13;4759581;30;20463;-75
2022/05/21 00:38:21;;;;;;;2.60;2.40;;;;;;;20.83;nan;94924.03;4752779;30;20524;-74
2022/05/21 00:40:48;;;;;;;2.60;2.40;;;;;;;21.16;nan;94919.50;4749758;30;21006;-75
2022/05/21 00:43:47;;;;;;;4.17;2.80;;;;;;;21.02;nan;94915.69;4738832;30;20432;-75
2022/05/21 00:46:14;;;;;;;3.97;2.50;;;;;;;20.83;nan;94908.06;4752138;30;20485;-75
2022/05/21 00:48:41;;;;;;;3.50;2.33;;;;;;;21.53;nan;94916.09;4749121;30;20469;-74
2022/05/21 00:51:16;;;;;;;3.40;1.97;;;;;;;21.52;nan;94909.16;4748331;30;20494;-75
2022/05/21 00:53:44;;;;;;;5.53;2.77;;;;;;;21.01;nan;94903.41;4756399;30;20445;-75
2022/05/21 00:56:11;;;;;;;3.20;2.27;;;;;;;21.69;nan;94905.53;4766348;30;20458;-76
2022/05/21 01:01:23;;;;;;;3.57;2.03;;;;;;;21.69;nan;94902.88;4749751;30;20452;-75
2022/05/21 01:03:49;;;;;;;3.43;2.43;;;;;;;21.66;nan;94906.03;4760224;30;20442;-75
2022/05/21 01:06:15;;;;;;;2.20;2.00;;;;;;;21.86;nan;94897.38;4748642;30;21019;-75
2022/05/21 01:08:41;;;;;;;3.23;2.37;;;;;;;21.82;nan;94900.53;4754996;30;20191;-75
2022/05/21 01:11:13;;;;;;;2.80;2.50;;;;;;;21.61;nan;94899.63;4765710;30;20494;-75
2022/05/21 01:13:41;;;;;;;6.97;2.57;;;;;;;21.29;nan;94902.31;4746735;30;20188;-74
2022/05/21 01:16:08;;;;;;;4.80;1.97;;;;;;;21.36;nan;94899.41;4756249;30;20448;-75
2022/05/21 01:18:34;;;;;;;2.40;2.23;;;;;;;21.18;nan;94904.09;4747124;30;20568;-74
2022/05/21 01:21:00;;;;;;;2.53;2.33;;;;;;;21.53;nan;94902.78;4756194;30;20453;-75
2022/05/21 01:23:26;;;;;;;2.37;2.10;;;;;;;21.58;nan;94896.69;4747051;30;20600;-74
2022/05/21 01:25:55;;;;;;;3.43;2.23;;;;;;;21.70;nan;94899.13;4754052;30;20482;-74
2022/05/21 01:28:23;;;;;;;8.07;2.80;;;;;;;21.56;nan;94894.25;4748315;30;20434;-75
2022/05/21 01:30:54;;;;;;;4.13;3.10;;;;;;;21.52;nan;94911.81;4750484;30;20454;-75
2022/05/21 01:33:36;;;;;;;4.60;3.00;;;;;;;21.41;nan;94910.91;4765920;30;20479;-75
2022/05/21 01:36:02;;;;;;;3.93;3.00;;;;;;;21.39;nan;94906.91;4749403;30;20525;-75
2022/05/21 01:38:31;;;;;;;2.67;2.47;;;;;;;21.45;nan;94903.25;4765491;30;20441;-75
2022/05/21 01:40:57;;;;;;;5.00;2.77;;;;;;;21.57;nan;94900.38;4751888;30;20855;-75
2022/05/21 01:46:09;;;;;;;2.63;2.20;;;;;;;21.32;nan;94908.97;4748673;30;20488;-75
2022/05/21 01:48:34;;;;;;;2.70;2.50;;;;;;;21.38;nan;94908.78;4752373;30;20440;-73
2022/05/21 01:51:00;;;;;;;2.67;2.37;;;;;;;21.37;nan;94901.03;4765383;30;20481;-73
2022/05/21 01:53:26;;;;;;;3.33;1.97;;;;;;;21.77;nan;94894.38;4760707;30;20202;-74
2022/05/21 01:55:53;;;;;;;2.23;2.00;;;;;;;21.02;nan;94894.41;4764596;30;20202;-75
2022/05/21 01:58:19;;;;;;;3.90;2.23;;;;;;;20.70;nan;94897.81;4752348;30;20842;-74
2022/05/21 02:00:45;;;;;;;2.90;1.83;;;;;;;19.62;nan;94899.16;4751223;30;20922;-74
2022/05/21 02:03:12;;;;;;;3.03;1.73;;;;;;;19.61;nan;94886.91;4751303;30;20470;-74
2022/05/21 02:05:39;;;;;;;5.33;2.27;;;;;;;20.44;nan;94891.41;4761389;30;20219;-74
2022/05/21 02:08:05;;;;;;;2.67;1.60;;;;;;;20.21;nan;94885.31;4762532;30;20518;-75
2022/05/21 02:10:33;;;;;;;2.90;2.00;;;;;;;20.53;nan;94881.16;4759831;30;20454;-74
2022/05/21 02:12:58;;;;;;;1.43;1.33;;;;;;;20.53;nan;94878.50;4731684;30;20445;-74
2022/05/21 02:15:24;;;;;;;6.77;2.40;;;;;;;20.81;nan;94872.09;4758784;30;20454;-74
2022/05/21 02:17:49;;;;;;;4.50;1.87;;;;;;;20.35;nan;94864.47;4749391;30;20206;-74
2022/05/21 02:20:15;;;;;;;4.80;2.10;;;;;;;20.34;nan;94857.56;4764816;30;20242;-75
2022/05/21 02:22:40;;;;;;;2.70;2.20;;;;;;;20.35;nan;94864.47;4762749;30;20202;-75
2022/05/21 02:25:08;;;;;;;2.73;1.87;;;;;;;20.38;nan;94856.00;4747150;30;20208;-75
2022/05/21 02:27:34;;;;;;;2.97;2.20;;;;;;;20.66;nan;94856.84;4736451;30;20210;-74
2022/05/21 02:29:59;;;;;;;2.37;2.17;;;;;;;20.69;nan;94866.94;4765188;30;20513;-75
2022/05/21 02:32:25;;;;;;;3.13;2.33;;;;;;;20.68;nan;94857.38;4762025;30;20466;-75
2022/05/21 02:35:10;;;;;;;8.30;2.50;;;;;;;20.58;nan;94860.72;4763458;30;20199;-74
2022/05/21 02:40:20;;;;;;;4.03;2.37;;;;;;;20.76;nan;94867.56;4749250;30;20461;-75
2022/05/21 02:42:46;;;;;;;3.20;2.27;;;;;;;20.52;nan;94860.91;4764473;30;20433;-75
2022/05/21 02:45:15;;;;;;;3.30;2.50;;;;;;;20.61;nan;94851.47;4758224;30;20215;-75
2022/05/21 02:47:40;;;;;;;2.43;1.77;;;;;;;20.06;nan;94855.91;4761551;30;20282;-74
2022/05/21 02:50:07;;;;;;;5.90;1.90;;;;;;;20.11;nan;94852.50;4753306;30;20454;-74
2022/05/21 02:52:33;;;;;;;4.07;2.40;;;;;;;20.13;nan;94863.69;4746864;30;20425;-73
2022/05/21 02:54:59;;;;;;;3.33;2.10;;;;;;;20.26;nan;94863.28;4751342;30;20442;-74
2022/05/21 02:57:25;;;;;;;3.23;2.33;;;;;;;20.36;nan;94855.44;4749727;30;20644;-74
2022/05/21 02:59:51;;;;;;;3.50;2.40;;;;;;;20.45;nan;94863.75;4749853;30;20233;-75
2022/05/21 03:02:18;;;;;;;3.80;2.27;;;;;;;20.43;nan;94871.19;4739408;30;20448;-75
2022/05/21 03:04:43;;;;;;;10.40;2.10;;;;;;;20.47;nan;94877.63;4775094;30;20857;-74
2022/05/21 03:07:10;;;;;;;2.60;2.40;;;;;;;20.18;nan;94879.69;4756389;30;20480;-75
2022/05/21 03:12:19;;;;;;;5.33;2.30;;;;;;;20.35;nan;94891.03;4763579;30;20464;-75
2022/05/21 03:14:44;;;;;;;1.73;1.63;;;;;;;20.03;nan;94883.78;4763066;30;20433;-75
2022/05/21 03:17:11;;;;;;;3.40;2.63;;;;;;;18.92;nan;94889.88;4757657;30;20242;-75
2022/05/21 03:19:37;;;;;;;2.23;2.00;;;;;;;19.34;nan;94884.16;4746198;30;20198;-74
2022/05/21 03:22:03;;;;;;;8.90;2.37;;;;;;;19.79;nan;94885.09;4750005;30;20536;-75
2022/05/21 03:24:28;;;;;;;4.13;2.83;;;;;;;19.98;nan;94881.06;4748619;30;20239;-76
2022/05/21 03:26:54;;;;;;;3.60;2.77;;;;;;;20.25;nan;94875.78;4732145;30;20219;-74
2022/05/21 03:29:20;;;;;;;3.87;3.57;;;;;;;20.18;nan;94877.84;4747734;30;20208;-75
2022/05/21 03:31:46;;;;;;;7.37;3.00;;;;;;;20.36;nan;94871.41;4747514;30;20458;-75
2022/05/21 03:34:11;;;;;;;4.07;3.13;;;;;;;20.40;nan;94877.81;4746515;30;20502;-75
2022/05/21 03:36:37;;;;;;;4.87;3.87;;;;;;;20.48;nan;94866.72;4745955;30;20286;-74
2022/05/21 03:39:03;;;;;;;2.77;2.50;;;;;;;20.35;nan;94869.78;4746768;30;20200;-74
2022/05/21 03:41:29;;;;;;;3.00;2.80;;;;;;;20.36;nan;94867.94;4754399;30;20237;-75
2022/05/21 03:43:55;;;;;;;3.47;3.17;;;;;;;20.60;nan;94865.81;4747997;30;20429;-75
2022/05/21 03:46:21;;;;;;;3.10;2.80;;;;;;;20.53;nan;94862.53;4762477;30;20493;-75
2022/05/21 03:48:46;;;;;;;8.20;3.13;;;;;;;20.71;nan;94866.72;4760802;30;20233;-74
2022/05/21 03:51:12;;;;;;;3.30;2.77;;;;;;;20.86;nan;94869.50;4751978;30;20292;-75
2022/05/21 03:53:38;;;;;;;4.30;2.20;;;;;;;20.93;nan;94870.09;4763563;30;20194;-74
2022/05/21 03:56:04;;;;;;;2.77;2.57;;;;;;;20.78;nan;94881.41;4763643;30;20204;-75
2022/05/21 03:58:31;;;;;;;4.10;3.70;;;;;;;20.72;nan;94882.41;4746372;30;20501;-76
2022/05/21 04:00:57;;;;;;;6.50;4.60;;;;;;;20.15;nan;94888.19;4745978;30;20856;-76
2022/05/21 04:03:22;;;;;;;9.30;6.50;;;;;;;20.89;nan;94889.47;4745733;30;20449;-75
2022/05/21 04:05:48;;;;;;;11.17;9.10;;;;;;;20.07;nan;94900.03;4750034;30;20218;-74
2022/05/21 04:08:15;;;;;;;11.97;9.60;;;;;;;20.71;nan;94911.91;4763323;30;20695;-75
2022/05/21 04:10:41;;;;;;;14.17;9.87;;;;;;;20.84;nan;94912.31;4740881;30;20208;-74
2022/05/21 04:13:06;;;;;;;13.37;7.20;;;;;;;21.08;nan;94908.50;4730085;30;20462;-75
2022/05/21 04:15:33;;;;;;;11.70;6.80;;;;;;;21.47;nan;94909.13;4746224;30;20219;-75
2022/05/21 04:17:58;;;;;;;7.37;4.70;;;;;;;20.74;nan;94909.56;4745912;30;20195;-75
2022/05/21 04:20:24;;;;;;;7.57;5.67;;;;;;;21.03;nan;94917.28;4753737;30;20464;-75
2022/05/21 04:22:50;;;;;;;6.60;5.47;;;;;;;21.63;nan;94910.84;4760396;30;20216;-75
2022/05/21 04:25:16;;;;;;;9.30;4.53;;;;;;;21.50;nan;94911.28;4732862;30;20214;-75
2022/05/21 04:27:42;;;;;;;5.20;4.70;;;;;;;21.46;nan;94915.50;4745672;30;20454;-75
2022/05/21 04:30:12;;;;;;;8.50;4.90;;;;;;;21.83;nan;94914.66;4744322;30;20210;-76
2022/05/21 04:32:37;;;;;;;8.70;5.90;;;;;;;21.98;nan;94917.41;4746839;30;20429;-75
2022/05/21 04:35:03;;;;;;;7.40;5.10;;;;;;;22.43;nan;94912.56;4763437;30;20437;-74
2022/05/21 04:37:29;;;;;;;8.20;4.60;;;;;;;21.89;nan;94902.97;4757367;30;20250;-75
2022/05/21 04:39:54;;;;;;;6.90;5.07;;;;;;;21.70;nan;94896.47;4748774;30;20509;-75
2022/05/21 04:42:19;;;;;;;7.10;5.50;;;;;;;21.86;nan;94895.50;4762462;30;20199;-74
2022/05/21 04:44:45;;;;;;;6.30;5.70;;;;;;;22.34;nan;94893.59;4763366;30;20192;-75
2022/05/21 04:47:11;;;;;;;10.70;5.37;;;;;;;22.33;nan;94902.66;4759062;30;20649;-75
2022/05/21 04:49:37;;;;;;;10.70;5.90;;;;;;;22.21;nan;94899.38;4762125;30;20187;-75
2022/05/21 04:52:03;;;;;;;7.63;5.90;;;;;;;23.03;nan;94899.63;4755274;30;20239;-75
2022/05/21 04:54:29;;;;;;;8.00;6.00;;;;;;;22.85;nan;94898.25;4758847;30;20430;-75
2022/05/21 04:56:55;;;;;;;8.90;5.30;;;;;;;22.09;nan;94904.13;4764945;30;20448;-75
2022/05/21 04:59:21;;;;;;;6.27;5.63;;;;;;;22.67;nan;94906.75;4746741;30;20446;-75
2022/05/21 05:01:46;;;;;;;6.07;5.47;;;;;;;22.16;nan;94913.50;4759118;30;20261;-75
2022/05/21 05:04:12;;;;;;;8.00;5.50;;;;;;;22.54;nan;94908.84;4755448;30;20231;-75
2022/05/21 05:06:38;;;;;;;7.97;5.80;;;;;;;22.67;nan;94912.91;4747338;30;20234;-75
2022/05/21 05:09:06;;;;;;;10.57;5.53;;;;;;;23.18;nan;94917.50;4749660;30;20442;-75
2022/05/21 05:11:32;;;;;;;7.73;5.70;;;;;;;23.31;nan;94913.50;4765618;30;21124;-75
2022/05/21 05:13:57;;;;;;;6.40;5.40;;;;;;;23.45;nan;94911.91;4766264;30;20454;-75
2022/05/21 05:16:23;;;;;;;6.40;5.10;;;;;;;24.06;nan;94904.84;4759421;30;20328;-75
2022/05/21 05:18:48;;;;;;;6.30;5.23;;;;;;;23.50;nan;94919.09;4750020;30;20270;-75
2022/05/21 05:21:14;;;;;;;5.13;4.03;;;;;;;22.98;nan;94907.59;4746797;30;20208;-75
2022/05/21 05:23:39;;;;;;;10.40;4.20;;;;;;;23.50;nan;94906.53;4732651;30;20214;-75
2022/05/21 05:26:05;;;;;;;6.03;4.73;;;;;;;23.97;nan;94900.06;4749891;30;20219;-76
2022/05/21 05:28:30;;;;;;;6.20;5.10;;;;;;;23.77;nan;94903.56;4765537;30;20195;-75
2022/05/21 05:30:56;;;;;;;10.37;6.00;;;;;;;23.84;nan;94902.50;4749919;30;20210;-76
2022/05/21 05:33:23;;;;;;;8.53;6.40;;;;;;;24.38;nan;94895.59;4760784;30;20270;-75
2022/05/21 05:35:52;;;;;;;5.90;5.10;;;;;;;24.30;nan;94895.13;4746658;30;20219;-75
2022/05/21 05:38:18;;;;;;;6.40;5.47;;;;;;;24.64;nan;94898.97;4747647;30;20426;-75
2022/05/21 05:40:46;;;;;;;7.77;5.50;;;;;;;25.11;nan;94890.34;4757626;30;20449;-75
2022/05/21 05:43:15;;;;;;;9.60;5.80;;;;;;;23.09;nan;94893.22;4765765;30;20449;-75
2022/05/21 05:45:41;;;;;;;5.60;4.93;;;;;;;23.76;nan;94885.91;4765762;30;20576;-75
2022/05/21 05:48:06;;;;;;;5.80;4.33;;;;;;;24.10;nan;94889.88;4763995;30;20520;-74
2022/05/21 05:50:32;;;;;;;5.10;4.33;;;;;;;24.91;nan;94888.66;4763139;30;20239;-75
2022/05/21 05:53:05;;;;;;;9.27;5.00;;;;;;;24.67;nan;94882.38;4764924;30;20199;-76
2022/05/21 05:55:32;;;;;;;5.90;5.17;;;;;;;23.97;nan;94880.53;4747592;30;20208;-74
2022/05/21 05:57:58;;;;;;;6.97;5.90;;;;;;;24.89;nan;94876.59;4750622;30;20430;-75
2022/05/21 06:00:25;;;;;;;6.03;5.53;;;;;;;25.87;nan;94871.19;4751178;30;20452;-75
2022/05/21 06:02:59;;;;;;;6.83;6.20;;;;;;;26.14;nan;94873.31;4748514;30;20216;-75
2022/05/21 06:05:28;;;;;;;6.63;5.30;;;;;;;26.15;nan;94872.25;4747579;30;20441;-75
2022/05/21 06:08:03;;;;;;;7.60;5.67;;;;;;;26.24;nan;94869.72;4756477;30;20468;-75
2022/05/21 06:10:30;;;;;;;6.77;6.10;;;;;;;26.18;nan;94871.69;4756101;30;20458;-75
2022/05/21 06:12:56;;;;;;;7.67;5.07;;;;;;;26.93;nan;94855.91;4764876;30;20437;-75
2022/05/21 06:15:22;;;;;;;7.17;6.40;;;;;;;27.07;nan;94854.88;4757902;30;20446;-75
2022/05/21 06:17:49;;;;;;;9.10;5.10;;;;;;;27.05;nan;94851.69;4756207;30;20536;-75
2022/05/21 06:20:16;;;;;;;6.03;5.43;;;;;;;27.18;nan;94854.69;4764160;30;20203;-75
2022/05/21 06:22:44;;;;;;;16.33;5.23;;;;;;;27.51;nan;94852.00;4762654;30;20437;-75
2022/05/21 06:25:11;;;;;;;5.53;5.00;;;;;;;28.01;nan;94849.47;4747193;30;20438;-75
2022/05/21 06:27:36;;;;;;;6.80;4.13;;;;;;;28.13;nan;94841.69;4747110;30;20466;-75
2022/05/21 06:30:04;;;;;;;5.50;4.30;;;;;;;27.84;nan;94845.47;4763158;30;20456;-75
2022/05/21 06:32:30;;;;;;;12.40;4.63;;;;;;;27.70;nan;94841.16;4764738;30;20228;-75
2022/05/21 06:34:56;;;;;;;7.60;5.07;;;;;;;27.70;nan;94833.91;4748872;30;20429;-75
2022/05/21 06:37:21;;;;;;;6.10;4.60;;;;;;;27.68;nan;94835.28;4763947;30;20457;-75
2022/05/21 06:39:47;;;;;;;11.63;4.20;;;;;;;27.34;nan;94825.69;4764476;30;20277;-75
2022/05/21 06:42:13;;;;;;;6.00;4.57;;;;;;;27.00;nan;94824.09;4764136;30;20218;-75
2022/05/21 06:44:39;;;;;;;5.30;4.80;;;;;;;27.67;nan;94823.75;4764250;30;20218;-75
2022/05/21 06:47:04;;;;;;;9.10;4.60;;;;;;;28.00;nan;94819.09;4747285;30;20255;-75
2022/05/21 06:49:30;;;;;;;9.20;4.80;;;;;;;27.95;nan;94813.03;4746851;30;20443;-75
2022/05/21 06:51:58;;;;;;;4.10;3.70;;;;;;;28.25;nan;94811.59;4746837;30;20236;-75
2022/05/21 06:54:25;;;;;;;4.77;4.37;;;;;;;27.82;nan;94810.00;4746431;30;20207;-75
2022/05/21 06:56:51;;;;;;;5.27;3.63;;;;;;;28.56;nan;94806.34;4764114;30;20885;-75
2022/05/21 06:59:17;;;;;;;5.50;4.10;;;;;;;27.42;nan;94809.69;4751030;30;20438;-75
2022/05/21 07:01:43;;;;;;;5.70;4.40;;;;;;;28.48;nan;94792.78;4746602;30;20456;-75
2022/05/21 07:04:09;;;;;;;6.70;3.73;;;;;;;28.18;nan;94795.03;4752852;30;20502;-76
2022/05/21 07:09:22;;;;;;;7.90;4.40;;;;;;;28.60;nan;94793.84;4747043;30;20461;-75
2022/05/21 07:11:49;;;;;;;7.13;5.23;;;;;;;28.56;nan;94790.16;4746413;30;20454;-76
2022/05/21 07:14:15;;;;;;;5.00;3.90;;;;;;;28.90;nan;94783.44;4755213;30;20453;-76
2022/05/21 07:16:41;;;;;;;4.73;4.13;;;;;;;29.54;nan;94790.47;4759291;30;20469;-75
2022/05/21 07:19:07;;;;;;;5.00;4.23;;;;;;;29.90;nan;94787.63;4763682;30;20421;-75
2022/05/21 07:21:33;;;;;;;5.50;3.93;;;;;;;30.01;nan;94777.28;4746816;30;20481;-75
2022/05/21 07:23:59;;;;;;;4.17;3.67;;;;;;;29.95;nan;94779.34;4735235;30;20811;-75
2022/05/21 07:26:24;;;;;;;5.30;4.50;;;;;;;29.07;nan;94771.97;4745981;30;20485;-75
2022/05/21 07:28:51;;;;;;;4.37;3.97;;;;;;;29.15;nan;94767.78;4750091;30;20700;-75
2022/05/21 07:31:17;;;;;;;11.10;4.33;;;;;;;29.68;nan;94771.47;4763792;30;20211;-75
2022/05/21 07:33:42;;;;;;;4.10;3.67;;;;;;;30.22;nan;94764.03;4750970;30;20442;-75
2022/05/21 07:36:08;;;;;;;4.20;3.87;;;;;;;29.19;nan;94763.34;4754485;30;20203;-75
2022/05/21 07:38:34;;;;;;;4.17;3.77;;;;;;;30.14;nan;94768.28;4743684;30;20200;-75
2022/05/21 07:40:59;;;;;;;4.53;4.10;;;;;;;29.90;nan;94771.41;4754304;30;20708;-75
2022/05/21 07:43:27;;;;;;;7.23;4.73;;;;;;;29.00;nan;94772.41;4758932;30;20205;-76
2022/05/21 07:45:56;;;;;;;4.43;3.87;;;;;;;28.13;nan;94760.16;4763432;30;20389;-76
2022/05/21 07:48:22;;;;;;;9.67;4.13;;;;;;;29.53;nan;94756.50;4763404;30;20772;-75
2022/05/21 07:50:54;;;;;;;3.87;3.57;;;;;;;30.12;nan;94759.69;4762664;30;20504;-76
2022/05/21 07:53:25;;;;;;;5.40;4.23;;;;;;;30.75;nan;94757.53;4763615;30;20191;-76
2022/05/21 07:55:52;;;;;;;5.43;4.03;;;;;;;30.21;nan;94769.72;4755308;30;20454;-76
2022/05/21 07:58:19;;;;;;;7.37;4.30;;;;;;;30.66;nan;94751.31;4747685;30;20430;-75
2022/05/21 08:00:45;;;;;;;7.70;3.87;;;;;;;30.91;nan;94752.44;4763094;30;20457;-75
2022/05/21 08:03:11;;;;;;;7.63;3.77;;;;;;;30.51;nan;94749.91;4763310;30;20425;-75
2022/05/21 08:05:38;;;;;;;6.30;4.70;;;;;;;30.74;nan;94741.63;4746890;30;20199;-73
2022/05/21 08:08:04;;;;;;;6.77;5.00;;;;;;;31.14;nan;94742.19;4762269;30;20448;-75
2022/05/21 08:10:30;;;;;;;9.23;4.73;;;;;;;30.98;nan;94733.03;4755478;30;20480;-75
2022/05/21 08:12:55;;;;;;;7.10;4.67;;;;;;;31.08;nan;94727.25;4763063;30;20441;-75
2022/05/21 08:15:21;;;;;;;6.93;3.67;;;;;;;30.21;nan;94726.53;4763370;30;20262;-75
2022/05/21 08:17:47;;;;;;;7.93;4.33;;;;;;;31.06;nan;94717.91;4750756;30;20218;-75
2022/05/21 08:20:14;;;;;;;5.37;3.80;;;;;;;31.06;nan;94717.91;4745686;30;20545;-75
2022/05/21 08:28:12;;;;;;;6.63;4.00;;;;;;;30.80;nan;94713.31;4745579;30;20480;-76
2022/05/21 08:30:38;;;;;;;6.83;4.23;;;;;;;30.44;nan;94713.69;4748793;30;20447;-75
2022/05/21 08:33:05;;;;;;;9.37;4.30;;;;;;;31.31;nan;94708.88;4752185;30;20858;-75
2022/05/21 08:35:30;;;;;;;10.23;4.67;;;;;;;31.83;nan;94709.75;4749951;30;20278;-76
2022/05/21 08:37:56;;;;;;;9.60;4.50;;;;;;;32.19;nan;94708.41;4749405;30;20462;-75
2022/05/21 08:40:22;;;;;;;7.50;5.00;;;;;;;32.39;nan;94712.25;4749024;30;20208;-76
2022/05/21 08:42:58;;;;;;;9.40;4.80;;;;;;;33.39;nan;94714.91;4752136;30;20223;-76
2022/05/21 08:45:31;;;;;;;6.07;5.07;;;;;;;32.30;nan;94712.31;4766109;30;20470;-76
2022/05/21 08:48:02;;;;;;;3.93;3.63;;;;;;;32.61;nan;94702.97;4762503;30;20512;-76
2022/05/21 08:50:33;;;;;;;11.33;4.97;;;;;;;33.36;nan;94704.75;4766277;30;20493;-76
2022/05/21 08:53:15;;;;;;;4.93;3.83;;;;;;;31.50;nan;94703.09;4748601;30;20456;-76
2022/05/21 08:55:45;;;;;;;10.60;4.00;;;;;;;32.09;nan;94704.19;4750322;30;20445;-76
2022/05/21 08:58:17;;;;;;;4.53;3.60;;;;;;;32.19;nan;94697.59;4733277;30;20434;-75
2022/05/21 09:00:45;;;;;;;6.50;3.97;;;;;;;32.66;nan;94700.06;4749004;30;20556;-75
2022/05/21 09:03:13;;;;;;;7.87;3.60;;;;;;;32.73;nan;94700.31;4743176;30;20518;-75
2022/05/21 09:05:45;;;;;;;8.80;4.03;;;;;;;32.64;nan;94696.91;4753910;30;20962;-75
2022/05/21 09:08:21;;;;;;;4.43;4.13;;;;;;;32.80;nan;94694.34;4750170;30;20448;-75
2022/05/21 09:10:56;;;;;;;4.70;3.40;;;;;;;33.90;nan;94699.09;4757237;30;20496;-75
2022/05/21 09:13:41;;;;;;;7.47;3.43;;;;;;;33.56;nan;94693.00;4765255;30;20485;-75
2022/05/21 09:18:56;;;;;;;5.60;3.10;;;;;;;32.92;nan;94688.97;4756264;30;20448;-76
2022/05/21 09:21:24;;;;;;;3.63;3.23;;;;;;;33.36;nan;94694.69;4759824;30;20459;-76
2022/05/21 09:23:52;;;;;;;3.30;3.00;;;;;;;33.92;nan;94690.59;4764370;30;20490;-76
2022/05/21 09:26:21;;;;;;;3.33;3.03;;;;;;;34.43;nan;94696.38;4748355;30;20546;-76
2022/05/21 09:28:48;;;;;;;3.90;3.20;;;;;;;35.03;nan;94691.00;4747707;30;20464;-76
2022/05/21 09:31:21;;;;;;;5.50;4.00;;;;;;;34.65;nan;94677.94;4750802;30;20469;-76
2022/05/21 09:33:47;;;;;;;6.17;3.37;;;;;;;33.85;nan;94688.47;4747669;30;20454;-75
2022/05/21 09:36:18;;;;;;;3.70;3.30;;;;;;;35.35;nan;94680.16;4747207;30;20453;-75
2022/05/21 09:38:52;;;;;;;2.40;2.20;;;;;;;34.47;nan;94674.72;4748969;30;20200;-76
2022/05/21 09:41:23;;;;;;;3.37;2.30;;;;;;;32.54;nan;94678.34;4760484;30;20449;-75
2022/05/21 09:46:39;;;;;;;12.03;2.60;;;;;;;32.81;nan;94668.84;4765636;30;20556;-77
2022/05/21 09:49:13;;;;;;;3.20;2.13;;;;;;;33.28;nan;94671.19;4750893;30;20441;-76
2022/05/21 09:51:40;;;;;;;6.43;2.80;;;;;;;32.81;nan;94664.19;4746293;30;20482;-74
2022/05/21 09:54:34;;;;;;;4.90;2.50;;;;;;;34.53;nan;94665.19;4747197;30;20506;-75
2022/05/21 09:57:00;;;;;;;3.80;2.00;;;;;;;32.57;nan;94669.56;4736356;30;20948;-75
2022/05/21 09:59:30;;;;;;;3.80;2.00;;;;;;;33.54;nan;94661.88;4747512;30;20435;-75
2022/05/21 10:02:13;;;;;;;3.60;2.43;;;;;;;33.92;nan;94658.81;4734221;30;20200;-75
2022/05/21 10:04:57;;;;;;;1.97;1.63;;;;;;;33.83;nan;94655.44;4765103;30;20434;-75
2022/05/21 10:13:12;;;;;;;2.23;1.93;;;;;;;35.82;nan;94643.13;4752197;30;20424;-75
2022/05/21 10:15:46;;;;;;;2.70;1.70;;;;;;;35.91;nan;94636.34;4757855;30;20493;-75
2022/05/21 10:18:36;;;;;;;4.23;2.03;;;;;;;34.85;nan;94630.72;4764949;30;20414;-76
2022/05/21 10:21:15;;;;;;;7.77;2.50;;;;;;;35.04;nan;94619.16;4749381;30;20445;-75
2022/05/21 10:24:13;;;;;;;4.30;1.83;;;;;;;36.51;nan;94618.84;4733501;30;20504;-76
2022/05/21 10:26:51;;;;;;;3.53;2.37;;;;;;;35.38;nan;94625.00;4760829;30;20961;-76
2022/05/21 10:29:35;;;;;;;2.40;2.00;;;;;;;35.86;nan;94614.81;4749025;30;20458;-76
2022/05/21 10:32:29;;;;;;;1.90;1.80;;;;;;;36.59;nan;94620.53;4754981;30;20468;-76
2022/05/21 10:35:09;;;;;;;2.50;2.13;;;;;;;36.43;nan;94620.66;4746607;30;20451;-76
2022/05/21 10:37:41;;;;;;;2.93;2.20;;;;;;;36.93;nan;94623.50;4746840;30;20442;-76
2022/05/21 10:40:25;;;;;;;6.60;2.27;;;;;;;36.73;nan;94615.38;4748186;30;20442;-76
2022/05/21 10:43:17;;;;;;;1.70;1.60;;;;;;;34.46;nan;94621.53;4756611;30;20490;-76
2022/05/21 10:46:03;;;;;;;2.20;1.90;;;;;;;35.01;nan;94617.13;4761068;30;20464;-76
2022/05/21 10:48:37;;;;;;;2.80;1.50;;;;;;;36.50;nan;94600.88;4764501;30;20429;-76
2022/05/21 10:51:19;;;;;;;2.40;2.07;;;;;;;36.83;nan;94600.34;4758377;30;20507;-76
2022/05/21 10:54:06;;;;;;;4.63;2.27;;;;;;;35.76;nan;94593.56;4744902;30;20434;-76
2022/05/21 10:56:44;;;;;;;2.17;2.07;;;;;;;36.38;nan;94587.44;4746857;30;20956;-75
2022/05/21 10:59:40;;;;;;;1.90;1.57;;;;;;;36.20;nan;94585.16;4746148;30;20438;-76
2022/05/21 11:02:35;;;;;;;2.30;1.97;;;;;;;36.10;nan;94578.34;4746386;30;20421;-75
2022/05/21 11:05:33;;;;;;;18.33;3.37;;;;;;;37.47;nan;94578.75;4697814;30;20460;-76
2022/05/21 11:08:15;;;;;;;5.33;1.50;;;;;;;37.70;nan;94572.44;4721583;30;20433;-75
2022/05/21 11:10:55;;;;;;;2.73;1.40;;;;;;;35.50;nan;94564.22;4760758;30;20445;-76
2022/05/21 11:13:27;;;;;;;1.60;1.50;;;;;;;36.71;nan;94551.41;4751626;30;20438;-76
2022/05/21 11:16:00;;;;;;;2.63;1.90;;;;;;;36.50;nan;94536.25;4752347;30;20444;-75
2022/05/21 11:18:39;;;;;;;55.27;6.83;;;;;;;37.62;nan;94544.25;4746063;30;20438;-76
2022/05/21 11:21:17;;;;;;;13.73;2.67;;;;;;;37.99;nan;94534.53;4747180;30;20573;-76
2022/05/21 11:23:54;;;;;;;2.07;1.40;;;;;;;37.41;nan;94531.06;4746133;30;20449;-75
2022/05/21 11:26:53;;;;;;;4.63;3.03;;;;;;;36.39;nan;94527.09;4755751;30;21005;-76
2022/05/21 11:29:36;;;;;;;2.13;1.53;;;;;;;38.01;nan;94527.53;4737767;30;20457;-77
2022/05/21 11:37:46;;;;;;;3.10;1.70;;;;;;;39.81;nan;94521.53;4750697;30;20875;-77
2022/05/21 11:40:49;;;;;;;2.10;1.90;;;;;;;39.80;nan;94514.50;4748138;30;20471;-76
2022/05/21 11:43:16;;;;;;;2.57;1.53;;;;;;;39.92;nan;94513.38;4757674;30;20426;-76
2022/05/21 11:46:07;;;;;;;3.30;1.60;;;;;;;39.95;nan;94507.09;4732755;30;20453;-76
2022/05/21 11:48:32;;;;;;;1.97;1.40;;;;;;;39.09;nan;94505.88;4758857;30;20434;-76
2022/05/21 11:51:22;;;;;;;1.50;1.40;;;;;;;38.80;nan;94506.44;4760473;30;20584;-76
2022/05/21 11:53:48;;;;;;;2.90;1.90;;;;;;;38.13;nan;94507.38;4746475;30;20187;-76
2022/05/21 11:56:14;;;;;;;1.73;1.57;;;;;;;38.32;nan;94492.69;4760407;30;20488;-76
2022/05/21 11:58:58;;;;;;;2.20;1.90;;;;;;;38.59;nan;94501.59;4747666;30;20199;-77
2022/05/21 12:01:36;;;;;;;1.80;1.63;;;;;;;39.92;nan;94490.69;4761904;30;20457;-76
2022/05/21 12:04:02;;;;;;;1.90;1.80;;;;;;;39.11;nan;94492.59;4745674;30;20472;-76
2022/05/21 12:06:41;;;;;;;2.50;1.60;;;;;;;38.28;nan;94483.69;4746470;30;20478;-75
2022/05/21 12:09:23;;;;;;;1.80;1.53;;;;;;;37.38;nan;94490.06;4734194;30;20426;-75
2022/05/21 12:11:49;;;;;;;2.00;1.90;;;;;;;38.05;nan;94495.53;4763309;30;20465;-76
2022/05/21 12:14:28;;;;;;;2.43;1.57;;;;;;;38.21;nan;94492.63;4759575;30;20966;-75
2022/05/21 12:17:00;;;;;;;1.50;1.40;;;;;;;38.96;nan;94486.22;4763236;30;20446;-76
2022/05/21 12:19:44;;;;;;;1.80;1.70;;;;;;;39.16;nan;94484.00;4763497;30;20413;-75
2022/05/21 12:22:10;;;;;;;1.77;1.67;;;;;;;39.98;nan;94475.41;4762421;30;20453;-76
2022/05/21 12:24:39;;;;;;;1.90;1.63;;;;;;;38.66;nan;94477.03;4747214;30;20849;-76
2022/05/21 12:27:14;;;;;;;3.80;2.43;;;;;;;38.83;nan;94475.56;4760804;30;20485;-76
2022/05/21 12:29:44;;;;;;;2.13;1.40;;;;;;;39.10;nan;94472.63;4745753;30;20410;-76
2022/05/21 12:32:16;;;;;;;1.90;1.80;;;;;;;40.23;nan;94469.97;4749635;30;20449;-76
2022/05/21 12:35:13;;;;;;;2.60;1.60;;;;;;;38.27;nan;94471.97;4745488;30;20430;-76
2022/05/21 12:37:47;;;;;;;1.70;1.47;;;;;;;39.16;nan;94462.09;4745341;30;20481;-76